Time;durP1;ratioP1;P1;durP2;ratioP2;P2;SDS_P1;SDS_P2;PMS_P1;PMS_P2;Temp;Humidity;BMP_temperature;BMP_pressure;BME280_temperature;BME280_humidity;BME280_pressure;Samples;Min_cycle;Max_cycle;Signal;HPM_P1;HPM_P2
2021/04/11 00:00:38;;;;;;;40.07;35.73;;;7.00;99.90;;;5.39;100.00;100089.44;4982227;28;57589;-59
2021/04/11 00:04:01;;;;;;;40.27;36.00;;;7.00;99.90;;;5.38;100.00;100085.97;4982287;28;52863;-58
2021/04/11 00:07:14;;;;;;;41.03;36.10;;;7.00;99.90;;;5.39;100.00;100092.94;4981886;28;53757;-59
2021/04/11 00:10:28;;;;;;;40.17;35.97;;;7.00;99.90;;;5.42;100.00;100083.91;4997188;28;52556;-58
2021/04/11 00:13:44;;;;;;;41.30;36.60;;;7.00;99.90;;;5.44;100.00;100078.47;4990222;28;55193;-59
2021/04/11 00:16:55;;;;;;;40.83;36.43;;;7.10;99.90;;;5.45;100.00;100074.81;5002695;28;51348;-57
2021/04/11 00:23:36;;;;;;;40.80;35.60;;;7.10;99.90;;;5.48;100.00;100075.41;5001474;28;47638;-59
2021/04/11 00:26:58;;;;;;;39.50;33.90;;;7.10;99.90;;;5.51;100.00;100063.69;5002248;28;55225;-59
2021/04/11 00:30:12;;;;;;;40.53;34.27;;;7.20;99.90;;;5.52;100.00;100062.72;4983327;28;59403;-59
2021/04/11 00:33:31;;;;;;;40.27;35.00;;;7.20;99.90;;;5.52;100.00;100054.75;4984449;28;54786;-59
2021/04/11 00:36:44;;;;;;;40.20;36.10;;;7.20;99.90;;;5.52;100.00;100058.25;4982058;28;54527;-59
2021/04/11 00:39:55;;;;;;;43.87;35.60;;;7.30;99.90;;;5.57;100.00;100049.88;4985659;28;46309;-59
2021/04/11 00:43:12;;;;;;;41.27;36.17;;;7.30;99.90;;;5.60;100.00;100055.78;4983282;28;50204;-58
2021/04/11 00:46:36;;;;;;;39.30;35.07;;;7.30;99.90;;;5.63;100.00;100052.84;4984428;28;52426;-59
2021/04/11 00:49:51;;;;;;;40.40;36.07;;;7.30;99.90;;;5.64;100.00;100041.28;4980883;28;51565;-58
2021/04/11 00:53:03;;;;;;;39.20;34.70;;;7.30;99.90;;;5.67;100.00;100042.81;4984809;28;49331;-59
2021/04/11 00:56:15;;;;;;;39.27;34.30;;;7.30;99.90;;;5.70;100.00;100037.22;4982560;28;47423;-57
2021/04/11 00:59:27;;;;;;;38.87;34.00;;;7.40;99.90;;;5.71;100.00;100029.13;5000447;28;49195;-59
2021/04/11 01:02:40;;;;;;;38.67;34.53;;;7.40;99.90;;;5.74;100.00;100015.59;4998513;28;55516;-58
2021/04/11 01:05:54;;;;;;;39.47;34.23;;;7.40;99.90;;;5.78;100.00;100018.84;4983597;28;48713;-59
2021/04/11 01:09:07;;;;;;;39.07;34.43;;;7.40;99.90;;;5.80;100.00;100010.75;5000473;28;49853;-59
2021/04/11 01:12:22;;;;;;;39.30;34.83;;;7.50;99.90;;;5.81;100.00;100015.06;5001243;28;48380;-59
2021/04/11 01:15:37;;;;;;;38.80;34.70;;;7.50;99.90;;;5.83;100.00;100002.47;4991385;28;53956;-59
2021/04/11 01:18:51;;;;;;;38.57;34.43;;;7.50;99.90;;;5.83;100.00;99995.34;5001269;28;51490;-59
2021/04/11 01:22:15;;;;;;;46.20;35.77;;;7.50;99.90;;;5.86;100.00;99994.25;5005775;28;51898;-59
2021/04/11 01:25:34;;;;;;;42.10;35.37;;;7.50;99.90;;;5.88;100.00;99998.50;4998978;28;43835;-59
2021/04/11 01:28:53;;;;;;;41.17;33.73;;;7.50;99.90;;;5.84;100.00;99991.72;4983034;28;56449;-57
2021/04/11 01:32:04;;;;;;;37.03;33.10;;;7.60;99.90;;;5.85;100.00;99984.59;5000224;28;44687;-58
2021/04/11 01:35:17;;;;;;;36.83;32.83;;;7.60;99.90;;;5.86;100.00;99975.66;5001827;28;52392;-59
2021/04/11 01:42:14;;;;;;;40.30;34.73;;;7.60;99.90;;;5.84;100.00;99967.84;4990705;28;53070;-59
2021/04/11 01:45:41;;;;;;;40.07;34.00;;;7.60;99.90;;;5.81;100.00;99960.13;4980824;28;52760;-57
2021/04/11 01:48:55;;;;;;;38.87;34.17;;;7.60;99.90;;;5.83;100.00;99955.53;4984932;28;45261;-59
2021/04/11 01:52:15;;;;;;;39.87;34.67;;;7.60;99.90;;;5.83;100.00;99957.34;4986486;28;47564;-59
2021/04/11 01:55:29;;;;;;;40.73;35.10;;;7.60;99.90;;;5.83;100.00;99952.03;4988568;28;48983;-56
2021/04/11 01:58:45;;;;;;;43.93;34.20;;;7.60;99.90;;;5.84;100.00;99951.91;4984432;28;47025;-59
2021/04/11 02:02:12;;;;;;;38.90;33.93;;;7.60;99.90;;;5.84;100.00;99946.59;4985843;28;49453;-60
2021/04/11 02:05:25;;;;;;;38.47;33.53;;;7.60;99.90;;;5.82;100.00;99945.88;5008499;28;47713;-59
2021/04/11 02:08:43;;;;;;;38.33;33.37;;;7.60;99.90;;;5.84;100.00;99935.13;5007075;28;48228;-59
2021/04/11 02:11:55;;;;;;;41.20;33.53;;;7.60;99.90;;;5.87;100.00;99932.22;5006902;28;50674;-58
2021/04/11 02:15:16;;;;;;;39.07;34.53;;;7.60;99.90;;;5.85;100.00;99932.34;5027443;28;51852;-59
2021/04/11 02:18:28;;;;;;;41.27;34.63;;;7.60;99.90;;;5.85;100.00;99927.03;5009859;28;51834;-59
2021/04/11 02:21:45;;;;;;;42.87;36.03;;;7.60;99.90;;;5.81;100.00;99922.97;5026329;28;44144;-58
2021/04/11 02:28:29;;;;;;;37.43;33.40;;;7.60;99.90;;;5.85;100.00;99920.88;4991542;28;42892;-59
2021/04/11 02:31:42;;;;;;;41.70;35.40;;;7.60;99.90;;;5.86;100.00;99920.75;5007116;28;51159;-59
2021/04/11 02:46:11;;;;;;;44.03;36.43;;;7.70;99.90;;;5.84;100.00;99897.97;4994352;28;41448;-59
2021/04/11 02:49:31;;;;;;;42.13;36.33;;;7.70;99.90;;;5.84;100.00;99890.84;4992701;28;40414;-60
2021/04/11 02:52:49;;;;;;;40.97;35.37;;;7.70;99.90;;;5.85;100.00;99895.16;5007804;28;43615;-57
2021/04/11 02:56:15;;;;;;;45.50;35.70;;;7.70;99.90;;;5.85;100.00;99894.31;4992069;28;46742;-59
2021/04/11 02:59:29;;;;;;;44.40;36.67;;;7.70;99.90;;;5.84;100.00;99884.69;4990607;28;42850;-60
2021/04/11 03:02:42;;;;;;;45.30;35.70;;;7.70;99.90;;;5.83;100.00;99886.50;4989079;28;45742;-59
2021/04/11 03:05:56;;;;;;;41.27;35.83;;;7.70;99.90;;;5.83;100.00;99872.38;5006640;28;44199;-58
2021/04/11 03:09:12;;;;;;;41.43;34.87;;;7.70;99.90;;;5.83;100.00;99867.06;5011378;28;43534;-60
2021/04/11 03:12:25;;;;;;;41.13;35.10;;;7.60;99.90;;;5.80;100.00;99862.91;5010129;28;47037;-59
2021/04/11 03:16:04;;;;;;;39.60;33.17;;;7.60;99.90;;;5.81;100.00;99864.56;5011013;28;39788;-59
2021/04/11 03:19:17;;;;;;;39.67;35.33;;;7.60;99.90;;;5.84;100.00;99858.97;4947701;28;49531;-59
2021/04/11 03:22:43;;;;;;;42.90;35.23;;;7.60;99.90;;;5.86;100.00;99872.13;5008356;28;45796;-58
2021/04/11 03:26:00;;;;;;;47.93;33.37;;;7.50;99.90;;;5.84;100.00;99852.81;4999341;28;48490;-60
2021/04/11 03:29:18;;;;;;;46.03;36.00;;;7.50;99.90;;;5.81;100.00;99864.56;4986106;28;47933;-59
2021/04/11 03:32:37;;;;;;;41.53;36.27;;;7.50;99.90;;;5.82;100.00;99878.66;4987139;28;46397;-59
2021/04/11 03:35:53;;;;;;;43.50;36.87;;;7.50;99.90;;;5.79;100.00;99871.84;4988844;28;48586;-59
2021/04/11 03:39:07;;;;;;;40.73;33.93;;;7.50;99.90;;;5.76;100.00;99866.81;5002657;28;48291;-59
2021/04/11 03:42:22;;;;;;;42.33;33.17;;;7.50;99.90;;;5.72;100.00;99860.06;5002476;28;43130;-59
2021/04/11 03:45:37;;;;;;;41.37;36.50;;;7.50;99.90;;;5.71;100.00;99861.06;4988496;28;44609;-57
2021/04/11 03:48:55;;;;;;;39.10;33.17;;;7.50;99.90;;;5.69;100.00;99884.22;5008397;28;45439;-60
2021/04/11 03:52:09;;;;;;;39.17;32.73;;;7.50;99.90;;;5.68;100.00;99871.97;5006324;28;44314;-59
2021/04/11 03:55:26;;;;;;;42.47;34.03;;;7.50;99.90;;;5.67;100.00;99876.44;5002188;28;47102;-59
2021/04/11 03:58:43;;;;;;;38.67;33.37;;;7.50;99.90;;;5.70;100.00;99876.13;5004616;28;43974;-59
2021/04/11 04:02:15;;;;;;;40.13;33.97;;;7.50;99.90;;;5.66;100.00;99869.44;5007030;28;45711;-58
2021/04/11 04:05:34;;;;;;;39.03;32.13;;;7.60;99.90;;;5.67;100.00;99872.94;5005854;28;46320;-58
2021/04/11 04:08:47;;;;;;;37.77;32.60;;;7.60;99.90;;;5.64;100.00;99870.56;4985141;28;46231;-58
2021/04/11 04:12:13;;;;;;;41.07;34.13;;;7.60;99.90;;;5.64;100.00;99866.09;4988922;28;42820;-60
2021/04/11 04:15:45;;;;;;;41.40;34.30;;;7.60;99.90;;;5.62;100.00;99860.06;5005609;28;53465;-60
2021/04/11 04:19:28;;;;;;;40.63;35.83;;;7.60;99.90;;;5.62;100.00;99854.75;4990591;28;43013;-59
2021/04/11 04:22:57;;;;;;;41.23;35.37;;;7.50;99.90;;;5.60;100.00;99850.56;4986350;28;51054;-59
2021/04/11 04:30:08;;;;;;;43.27;36.40;;;7.50;99.90;;;5.60;100.00;99853.22;4989250;28;41675;-60
2021/04/11 04:34:13;;;;;;;44.07;33.67;;;7.40;99.90;;;5.60;100.00;99846.09;4983141;28;50228;-58
2021/04/11 04:37:35;;;;;;;41.90;33.87;;;7.40;99.90;;;5.62;100.00;99856.56;4956612;28;55063;-59
2021/04/11 04:40:59;;;;;;;40.63;32.07;;;7.40;99.90;;;5.59;100.00;99859.50;4987968;28;42074;-60
2021/04/11 04:44:18;;;;;;;42.13;34.57;;;7.30;99.90;;;5.53;100.00;99850.28;4987136;28;52417;-58
2021/04/11 04:47:40;;;;;;;39.93;33.47;;;7.30;99.90;;;5.51;100.00;99841.63;4988675;28;49156;-58
2021/04/11 04:50:59;;;;;;;41.80;34.60;;;7.20;99.90;;;5.45;100.00;99836.00;4984289;28;45473;-59
2021/04/11 04:54:24;;;;;;;41.20;34.80;;;7.20;99.90;;;5.41;100.00;99843.41;4986577;28;48790;-58
2021/04/11 04:57:43;;;;;;;43.10;34.90;;;7.10;99.90;;;5.41;100.00;99841.59;4984826;28;50991;-59
2021/04/11 05:01:00;;;;;;;41.73;34.77;;;7.00;99.90;;;5.41;100.00;99840.75;4984549;28;43648;-59
2021/04/11 05:04:28;;;;;;;40.20;34.77;;;7.00;99.90;;;5.42;100.00;99842.44;4983058;28;51341;-60
2021/04/11 05:07:58;;;;;;;46.50;35.07;;;7.00;99.90;;;5.45;100.00;99833.34;4980358;28;50308;-58
2021/04/11 05:11:16;;;;;;;40.97;34.23;;;7.00;99.90;;;5.48;100.00;99833.06;5003203;28;51157;-58
2021/04/11 05:14:34;;;;;;;38.47;34.37;;;7.10;99.90;;;5.50;100.00;99823.16;5003717;28;48940;-59
2021/04/11 05:18:05;;;;;;;44.87;34.27;;;7.10;99.90;;;5.49;100.00;99822.31;5001963;28;49757;-58
2021/04/11 05:25:15;;;;;;;37.97;32.20;;;7.10;99.90;;;5.72;100.00;99812.28;4997162;28;43541;-58
2021/04/11 05:35:29;;;;;;;41.90;36.30;;;7.30;99.90;;;6.74;100.00;99811.63;4987041;28;50269;-60
2021/04/11 05:38:48;;;;;;;37.90;31.73;;;7.50;99.90;;;6.74;100.00;99806.31;4991968;28;54784;-59
2021/04/11 05:45:47;;;;;;;32.27;27.47;;;8.00;99.90;;;7.43;100.00;99807.66;4990229;28;47611;-59
2021/04/11 05:49:08;;;;;;;35.20;29.87;;;8.30;99.90;;;7.14;100.00;99806.00;4992483;28;42241;-60
2021/04/11 05:52:31;;;;;;;34.20;27.87;;;8.50;99.90;;;7.03;100.00;99811.53;4987288;28;43880;-59
2021/04/11 05:55:47;;;;;;;31.57;27.57;;;8.70;99.90;;;6.99;100.00;99807.47;4995218;28;39811;-58
2021/04/11 05:59:05;;;;;;;31.17;26.57;;;8.80;99.90;;;6.90;100.00;99810.19;4990371;28;41409;-59
2021/04/11 06:02:22;;;;;;;28.77;25.60;;;8.90;99.90;;;6.95;100.00;99810.56;4986632;28;53438;-57
2021/04/11 06:05:45;;;;;;;27.60;24.67;;;8.90;99.90;;;7.00;100.00;99809.16;4994594;28;39968;-59
2021/04/11 06:13:05;;;;;;;31.30;26.63;;;8.90;99.90;;;7.66;100.00;99811.59;4984897;28;45416;-60
2021/04/11 06:16:22;;;;;;;33.60;26.67;;;9.00;99.90;;;7.96;100.00;99797.03;4958215;28;40862;-60
2021/04/11 06:19:36;;;;;;;29.93;25.67;;;9.20;99.90;;;7.94;100.00;99805.19;4993857;28;43817;-58
2021/04/11 06:22:55;;;;;;;34.40;27.00;;;9.50;99.90;;;8.48;100.00;99797.97;4991071;28;49019;-59
2021/04/11 06:26:13;;;;;;;26.23;23.07;;;9.80;99.90;;;9.06;100.00;99807.13;4988802;28;45224;-60
2021/04/11 06:29:30;;;;;;;25.93;21.43;;;10.20;99.90;;;9.17;100.00;99802.34;4984300;28;47717;-59
2021/04/11 06:36:20;;;;;;;20.93;18.30;;;11.00;99.90;;;10.07;100.00;99798.03;4982466;28;48484;-59
2021/04/11 06:39:35;;;;;;;23.60;16.87;;;11.50;99.90;;;10.94;100.00;99794.56;4984626;28;46557;-58
2021/04/11 06:43:04;;;;;;;18.53;14.20;;;12.00;99.90;;;11.21;100.00;99787.97;4985970;28;50174;-60
2021/04/11 06:46:23;;;;;;;14.63;13.13;;;12.50;99.90;;;11.55;100.00;99784.09;4950003;28;52120;-60
2021/04/11 06:50:04;;;;;;;15.37;12.13;;;13.10;99.90;;;12.03;100.00;99780.25;4981942;28;48399;-60
2021/04/11 06:53:45;;;;;;;14.10;9.30;;;13.60;99.90;;;11.99;100.00;99777.09;4982208;28;48600;-60
2021/04/11 06:57:19;;;;;;;7.37;5.43;;;14.10;99.80;;;12.45;100.00;99777.91;4918800;28;52099;-60
2021/04/11 07:00:47;;;;;;;7.63;4.40;;;14.50;92.00;;;13.06;100.00;99775.88;4983863;28;60393;-60
2021/04/11 07:12:01;;;;;;;5.43;3.65;;;15.60;63.30;;;13.52;100.00;99775.66;4968754;28;42637;-60
2021/04/11 07:15:50;;;;;;;3.75;2.83;;;15.90;59.90;;;13.58;100.00;99778.41;4924277;28;44164;-60
2021/04/11 07:23:29;;;;;;;5.13;2.95;;;16.30;56.10;;;13.96;100.00;99770.13;4991819;28;25476;-59
2021/04/11 07:26:53;;;;;;;5.13;2.80;;;16.60;55.00;;;14.20;100.00;99766.19;4952172;28;30531;-61
2021/04/11 07:30:17;;;;;;;4.50;2.60;;;16.70;55.40;;;13.86;100.00;99769.59;5010371;28;37435;-59
2021/04/11 07:33:48;;;;;;;4.93;2.72;;;16.90;52.90;;;14.04;100.00;99772.69;4986520;28;43063;-60
2021/04/11 07:37:29;;;;;;;4.80;2.42;;;16.80;51.80;;;14.07;100.00;99758.00;4993995;28;46793;-60
2021/04/11 07:40:54;;;;;;;6.43;2.97;;;16.90;51.00;;;14.15;100.00;99764.09;4934594;28;36198;-59
2021/04/11 07:44:29;;;;;;;4.00;2.88;;;17.00;50.20;;;14.25;100.00;99761.06;4996046;28;34748;-60
2021/04/11 07:48:07;;;;;;;5.22;2.92;;;17.00;50.10;;;14.30;100.00;99761.31;4990249;28;24871;-60
2021/04/11 07:51:44;;;;;;;5.82;3.10;;;17.10;49.40;;;14.70;100.00;99767.84;4999213;28;22137;-60
2021/04/11 07:55:19;;;;;;;4.47;2.60;;;17.20;49.50;;;14.70;100.00;99762.47;4938884;28;27058;-60
2021/04/11 07:58:50;;;;;;;4.28;2.85;;;17.50;49.00;;;14.99;100.00;99762.22;5004980;28;21242;-61
2021/04/11 08:02:43;;;;;;;4.30;2.60;;;17.60;48.70;;;14.75;100.00;99768.06;5003325;28;25366;-60
2021/04/11 08:06:36;;;;;;;3.35;2.22;;;17.80;47.50;;;14.77;100.00;99755.25;4912098;28;20632;-60
2021/04/11 08:10:25;;;;;;;3.83;2.80;;;17.80;48.00;;;14.71;100.00;99750.66;4923390;28;21018;-61
2021/04/11 08:14:04;;;;;;;5.03;2.90;;;17.70;47.70;;;14.57;100.00;99757.00;5010035;28;25779;-59
2021/04/11 08:17:38;;;;;;;4.10;2.85;;;17.60;47.40;;;14.50;100.00;99750.72;5005315;28;20480;-60
2021/04/11 08:21:06;;;;;;;4.18;3.08;;;17.50;47.40;;;14.92;100.00;99744.34;5008473;28;20263;-61
2021/04/11 08:24:59;;;;;;;4.28;3.05;;;17.50;47.40;;;15.04;100.00;99734.69;5011921;28;20357;-61
2021/04/11 08:28:31;;;;;;;5.68;3.22;;;17.60;47.40;;;14.82;100.00;99739.34;4987783;28;20265;-61
2021/04/11 08:32:04;;;;;;;5.03;3.38;;;17.80;47.50;;;14.72;100.00;99730.75;4936399;28;20434;-61
2021/04/11 08:35:27;;;;;;;4.38;2.90;;;17.80;47.20;;;14.84;100.00;99731.03;4943251;28;20903;-61
2021/04/11 08:38:38;;;;;;;5.90;3.00;;;17.70;46.80;;;15.06;100.00;99719.97;4954268;28;20502;-61
2021/04/11 08:42:22;;;;;;;3.63;2.53;;;17.80;47.40;;;15.15;100.00;99725.19;5004487;28;20237;-61
2021/04/11 08:46:08;;;;;;;3.75;2.90;;;17.90;47.20;;;15.31;100.00;99716.75;4988718;28;20532;-60
2021/04/11 08:49:35;;;;;;;5.38;2.92;;;18.00;47.00;;;15.65;100.00;99715.81;5006620;28;20342;-61
2021/04/11 08:52:58;;;;;;;5.60;3.03;;;18.20;47.20;;;15.97;100.00;99725.81;5006120;28;20623;-60
2021/04/11 08:56:15;;;;;;;4.55;3.10;;;18.50;47.00;;;15.51;100.00;99714.09;5005185;28;20587;-61
2021/04/11 08:59:58;;;;;;;5.63;2.90;;;18.80;45.40;;;15.67;100.00;99717.28;5010441;28;20240;-61
2021/04/11 09:03:33;;;;;;;4.75;2.97;;;18.80;45.50;;;15.76;100.00;99720.63;4995935;28;20241;-61
2021/04/11 09:06:59;;;;;;;5.15;3.20;;;18.80;45.60;;;15.66;100.00;99715.63;5007230;28;20494;-61
2021/04/11 09:10:27;;;;;;;5.13;3.47;;;18.90;44.80;;;15.72;100.00;99722.88;5006550;28;20640;-61
2021/04/11 09:13:49;;;;;;;4.78;3.22;;;18.90;44.80;;;16.05;100.00;99714.84;5006189;28;20647;-61
2021/04/11 09:17:09;;;;;;;3.97;2.90;;;19.00;45.20;;;16.30;100.00;99719.59;5005098;28;20520;-61
2021/04/11 09:20:30;;;;;;;7.00;3.30;;;19.20;44.90;;;16.84;100.00;99719.31;5005768;28;20233;-61
2021/04/11 09:24:13;;;;;;;3.88;3.03;;;19.50;45.20;;;17.24;100.00;99718.13;5019825;28;20512;-61
2021/04/11 09:27:39;;;;;;;4.00;2.88;;;19.80;45.20;;;16.82;100.00;99722.22;4988785;28;20647;-61
2021/04/11 09:31:09;;;;;;;4.80;3.28;;;20.10;44.20;;;17.74;100.00;99712.88;5004807;28;20723;-61
2021/04/11 09:38:39;;;;;;;5.63;2.92;;;20.70;42.90;;;16.78;100.00;99723.72;5009021;28;20245;-61
2021/04/11 09:42:39;;;;;;;4.72;3.65;;;20.70;41.40;;;16.29;100.00;99715.25;4942128;28;20224;-61
2021/04/11 09:46:29;;;;;;;4.63;3.63;;;20.50;40.90;;;16.31;100.00;99715.88;4921498;28;20516;-61
2021/04/11 09:50:00;;;;;;;5.50;3.20;;;20.40;41.30;;;16.64;100.00;99718.53;4923492;28;20515;-60
2021/04/11 09:53:30;;;;;;;7.45;3.50;;;20.30;42.00;;;16.74;100.00;99710.81;5004761;28;20308;-61
2021/04/11 09:57:01;;;;;;;4.25;3.28;;;20.30;41.70;;;16.82;100.00;99708.72;5005904;28;20454;-61
2021/04/11 10:00:32;;;;;;;4.72;3.25;;;20.30;42.20;;;16.97;100.00;99710.34;5012082;28;20580;-61
2021/04/11 10:04:17;;;;;;;6.15;3.33;;;20.50;42.40;;;17.18;100.00;99707.38;5002706;28;20241;-61
2021/04/11 10:07:55;;;;;;;5.28;3.55;;;20.70;42.10;;;17.47;100.00;99701.38;4957704;28;20246;-61
2021/04/11 10:11:21;;;;;;;5.28;3.55;;;21.00;42.00;;;17.45;100.00;99699.91;5000040;28;20510;-62
2021/04/11 10:22:59;;;;;;;7.90;3.60;;;21.60;40.40;;;17.33;100.00;99697.06;5006717;28;20234;-62
2021/04/11 10:26:18;;;;;;;4.22;3.47;;;21.60;40.70;;;17.13;100.00;99694.47;4948847;28;20233;-61
2021/04/11 10:29:33;;;;;;;4.18;3.22;;;21.60;39.70;;;17.45;100.00;99679.13;4946766;28;20397;-61
2021/04/11 10:32:50;;;;;;;5.25;3.60;;;21.70;40.30;;;17.07;100.00;99689.09;5007564;28;20222;-62
2021/04/11 10:36:06;;;;;;;4.97;3.65;;;22.00;39.90;;;17.04;100.00;99692.25;5007098;28;20226;-62
2021/04/11 10:39:25;;;;;;;4.93;3.72;;;22.00;39.80;;;17.40;100.00;99673.53;5007823;28;20265;-62
2021/04/11 10:42:51;;;;;;;4.53;3.47;;;21.90;39.90;;;17.64;100.00;99685.50;5007792;28;20218;-61
2021/04/11 10:46:08;;;;;;;5.80;3.28;;;22.00;39.90;;;17.60;100.00;99681.53;5010823;28;20606;-62
2021/04/11 10:49:37;;;;;;;7.60;3.67;;;22.10;39.70;;;17.52;100.00;99679.91;5007942;28;20705;-62
2021/04/11 10:53:09;;;;;;;4.07;3.22;;;22.20;39.40;;;17.96;98.57;99675.47;4986167;28;21021;-62
2021/04/11 10:56:56;;;;;;;4.82;3.10;;;22.40;39.70;;;18.06;100.00;99667.66;5008816;28;20206;-62
2021/04/11 11:00:28;;;;;;;7.57;3.60;;;22.60;39.20;;;17.98;99.19;99667.13;5010369;28;20375;-62
2021/04/11 11:04:03;;;;;;;4.43;3.50;;;22.80;38.60;;;18.04;96.98;99664.38;5007087;28;20578;-62
2021/04/11 11:07:34;;;;;;;6.35;3.63;;;23.00;38.20;;;18.20;95.40;99674.63;4987334;28;20632;-61
2021/04/11 11:14:38;;;;;;;4.82;3.00;;;23.50;38.80;;;18.25;95.42;99672.09;5006571;28;20714;-62
2021/04/11 11:18:01;;;;;;;4.57;3.30;;;23.80;37.30;;;19.34;99.22;99663.13;5005368;28;20544;-63
2021/04/11 11:21:31;;;;;;;3.60;2.75;;;23.80;37.90;;;19.20;92.50;99661.63;5011512;28;20210;-62
2021/04/11 11:25:09;;;;;;;3.88;3.10;;;24.00;37.50;;;18.59;90.46;99665.31;5010193;28;20304;-62
2021/04/11 11:32:30;;;;;;;5.72;3.03;;;24.20;35.80;;;18.53;90.84;99663.47;4979437;28;20273;-60
2021/04/11 11:36:10;;;;;;;5.43;2.77;;;24.10;35.90;;;19.36;89.26;99669.16;4591746;28;10001634;-60
2021/04/11 11:39:33;;;;;;;4.65;3.53;;;24.10;36.50;;;18.73;88.52;99657.84;4982711;28;20234;-61
2021/04/11 11:42:54;;;;;;;4.20;3.03;;;24.30;36.10;;;19.50;89.39;99661.69;4981820;28;20234;-61
2021/04/11 11:46:13;;;;;;;5.65;3.40;;;24.40;36.00;;;19.40;85.22;99650.53;4984944;28;20541;-62
2021/04/11 11:49:38;;;;;;;5.57;3.13;;;24.60;36.70;;;20.86;80.97;99663.31;4985982;28;20944;-62
2021/04/11 11:53:07;;;;;;;3.72;2.60;;;25.10;36.80;;;20.41;79.51;99660.38;4985651;28;20961;-61
2021/04/11 11:56:36;;;;;;;7.70;3.35;;;25.50;34.90;;;20.40;74.34;99656.03;4980918;28;20532;-64
2021/04/11 12:00:06;;;;;;;3.83;2.90;;;25.80;34.40;;;20.04;82.45;99649.72;4985626;28;20655;-60
2021/04/11 12:03:33;;;;;;;5.28;3.15;;;26.00;33.60;;;20.03;78.55;99649.97;4986073;28;20249;-62
2021/04/11 12:07:02;;;;;;;6.68;2.75;;;26.10;33.90;;;19.37;84.30;99649.09;4985897;28;20508;-61
2021/04/11 12:10:26;;;;;;;3.53;3.13;;;26.20;33.10;;;20.28;77.63;99655.16;4985810;28;20576;-61
2021/04/11 12:21:03;;;;;;;5.35;3.20;;;26.40;33.20;;;20.14;71.26;99642.91;4985543;28;20322;-63
2021/04/11 12:24:24;;;;;;;5.65;2.83;;;26.80;32.60;;;20.89;73.34;99641.06;4985965;28;20222;-63
2021/04/11 12:27:59;;;;;;;4.03;2.83;;;27.00;32.10;;;20.63;73.34;99647.88;4985568;28;20557;-63
2021/04/11 12:31:18;;;;;;;6.32;2.80;;;26.90;31.60;;;20.37;72.23;99637.50;4985707;28;20604;-63
2021/04/11 12:34:49;;;;;;;6.13;2.83;;;26.90;32.00;;;20.54;75.49;99637.56;4985735;28;20729;-62
2021/04/11 12:38:13;;;;;;;6.35;2.95;;;26.90;31.30;;;19.51;80.38;99611.78;4988348;28;20659;-63
2021/04/11 12:41:37;;;;;;;3.60;3.00;;;26.80;31.00;;;19.90;80.86;99620.34;4985736;28;20219;-62
2021/04/11 12:44:56;;;;;;;3.30;2.58;;;26.40;32.20;;;19.62;79.29;99618.28;4985886;28;20223;-62
2021/04/11 12:48:25;;;;;;;5.32;3.13;;;25.90;31.80;;;19.09;79.20;99616.31;4985200;28;20365;-63
2021/04/11 12:52:02;;;;;;;3.80;2.88;;;25.50;32.20;;;19.82;77.85;99613.34;4979723;28;20796;-63
2021/04/11 12:55:21;;;;;;;5.22;3.00;;;25.20;33.70;;;19.36;81.87;99620.31;4918425;28;20259;-60
2021/04/11 12:58:56;;;;;;;7.70;3.47;;;25.00;33.70;;;19.15;86.38;99625.44;4982575;28;20752;-61
2021/04/11 13:02:15;;;;;;;6.13;3.30;;;24.70;34.20;;;18.67;87.42;99627.06;4981730;28;20342;-63
2021/04/11 13:05:53;;;;;;;5.80;3.20;;;24.20;34.90;;;19.05;90.17;99625.13;4985733;28;20230;-62
2021/04/11 13:09:24;;;;;;;5.90;2.60;;;23.70;36.00;;;19.39;84.83;99624.47;4983595;28;20607;-62
2021/04/11 13:12:46;;;;;;;3.45;3.15;;;23.60;36.70;;;19.09;87.24;99627.16;4977172;28;20227;-63
2021/04/11 13:16:07;;;;;;;4.72;3.35;;;23.70;36.30;;;19.23;83.89;99619.69;4984202;28;20512;-63
2021/04/11 13:19:28;;;;;;;5.40;3.65;;;23.70;36.10;;;19.12;85.87;99625.88;4985799;28;20219;-63
2021/04/11 13:22:45;;;;;;;5.72;3.97;;;23.60;36.00;;;19.15;84.72;99615.41;4985182;28;20659;-62
2021/04/11 13:26:06;;;;;;;5.03;4.35;;;23.50;36.30;;;18.84;86.56;99616.44;4985050;28;20530;-62
2021/04/11 13:29:26;;;;;;;5.45;3.65;;;23.40;36.20;;;18.93;86.65;99615.06;4104257;28;10000999;-62
2021/04/11 13:32:54;;;;;;;5.80;4.07;;;23.20;36.80;;;19.57;84.95;99626.28;4104104;28;10000911;-63
2021/04/11 13:36:13;;;;;;;9.65;4.22;;;23.30;37.20;;;19.44;85.01;99627.28;4983591;28;20266;-63
2021/04/11 13:39:29;;;;;;;8.40;4.20;;;23.40;37.30;;;19.18;86.50;99625.78;4949450;28;20445;-63
2021/04/11 13:42:55;;;;;;;7.28;4.20;;;23.50;36.90;;;19.00;85.99;99615.81;4977369;28;20325;-62
2021/04/11 13:46:15;;;;;;;6.00;4.40;;;23.40;36.80;;;19.26;87.05;99628.19;4988903;28;20533;-63
2021/04/11 13:49:35;;;;;;;7.03;5.20;;;23.40;37.20;;;19.18;86.64;99616.81;4987113;28;20243;-62
2021/04/11 13:52:53;;;;;;;6.15;4.57;;;23.30;37.20;;;19.04;84.96;99628.94;4979986;28;20600;-63
2021/04/11 13:56:13;;;;;;;6.63;4.53;;;23.20;36.90;;;19.18;83.79;99614.94;4987580;28;20257;-62
2021/04/11 13:59:30;;;;;;;5.57;4.45;;;23.20;36.90;;;19.33;80.73;99617.22;4987445;28;20219;-62
2021/04/11 14:02:55;;;;;;;7.10;4.72;;;23.30;37.00;;;19.60;81.14;99604.13;4987325;28;20525;-62
2021/04/11 14:06:12;;;;;;;7.88;5.03;;;23.30;36.90;;;19.19;80.33;99611.16;5002602;28;20301;-63
2021/04/11 14:09:30;;;;;;;6.10;4.43;;;23.30;36.50;;;19.45;81.23;99603.69;4987525;28;20699;-62
2021/04/11 14:12:47;;;;;;;7.88;5.30;;;23.30;36.80;;;19.58;80.96;99601.63;4987289;28;20451;-63
2021/04/11 14:16:05;;;;;;;6.32;4.93;;;23.30;36.90;;;19.68;79.42;99610.03;5001775;28;20655;-63
2021/04/11 14:19:29;;;;;;;6.13;4.47;;;23.50;36.90;;;18.99;82.41;99602.50;4961672;28;20246;-62
2021/04/11 14:22:49;;;;;;;11.85;4.78;;;23.40;36.20;;;19.07;81.93;99606.75;4985671;28;20530;-62
2021/04/11 14:26:06;;;;;;;6.00;4.82;;;23.20;36.70;;;19.21;82.25;99597.38;4104715;28;10000715;-62
2021/04/11 14:29:23;;;;;;;7.78;5.38;;;23.00;36.90;;;18.69;80.61;99609.75;4985860;28;20490;-62
2021/04/11 14:32:44;;;;;;;7.03;4.60;;;22.70;36.40;;;18.95;80.62;99607.53;4985633;28;21010;-63
2021/04/11 14:36:07;;;;;;;7.03;5.25;;;22.50;37.10;;;18.87;81.27;99605.16;4977377;28;20238;-63
2021/04/11 14:39:29;;;;;;;5.65;4.90;;;22.40;37.50;;;19.02;79.52;99597.44;4985138;28;20487;-62
2021/04/11 14:42:44;;;;;;;6.50;5.25;;;22.20;37.80;;;19.04;77.44;99601.81;4985733;28;20451;-63
2021/04/11 14:45:58;;;;;;;5.97;4.72;;;22.10;37.70;;;18.98;77.37;99609.78;4985805;28;20456;-62
2021/04/11 14:49:15;;;;;;;5.93;4.38;;;22.00;37.40;;;18.98;78.36;99607.09;4999849;28;20541;-63
2021/04/11 14:52:38;;;;;;;5.80;4.20;;;21.90;37.90;;;19.36;78.86;99616.78;4978437;28;20238;-61
2021/04/11 14:56:03;;;;;;;6.75;4.65;;;21.90;38.60;;;19.19;77.03;99615.75;4984615;28;20278;-62
2021/04/11 14:59:25;;;;;;;7.00;4.80;;;21.90;38.20;;;18.96;75.98;99619.19;4985321;28;20226;-63
2021/04/11 15:02:51;;;;;;;6.47;5.28;;;21.80;38.20;;;18.97;76.90;99618.16;4985106;28;20648;-63
2021/04/11 15:06:09;;;;;;;6.38;4.93;;;21.80;37.90;;;18.85;78.10;99604.53;4984900;28;20466;-62
2021/04/11 15:09:38;;;;;;;6.55;5.07;;;21.70;38.20;;;18.80;80.39;99600.84;4985086;28;20235;-62
2021/04/11 15:12:58;;;;;;;5.57;4.22;;;21.70;38.40;;;18.84;80.27;99610.19;4979601;28;20235;-61
2021/04/11 15:16:18;;;;;;;5.45;4.55;;;21.60;39.00;;;18.55;82.29;99614.47;4984658;28;20542;-62
2021/04/11 15:19:35;;;;;;;6.28;4.60;;;21.60;39.00;;;18.86;83.39;99608.91;4984364;28;20219;-61
2021/04/11 15:22:53;;;;;;;7.93;4.15;;;21.40;39.30;;;18.99;81.73;99616.03;4985812;28;20523;-61
2021/04/11 15:26:12;;;;;;;6.85;4.75;;;21.40;39.80;;;18.30;83.69;99617.22;5000110;28;20488;-61
2021/04/11 15:29:58;;;;;;;8.82;5.13;;;21.30;39.40;;;18.57;83.86;99609.66;4986065;28;20246;-61
2021/04/11 15:33:16;;;;;;;7.05;4.97;;;21.20;39.90;;;18.45;86.63;99609.56;4986628;28;20223;-62